Time;durP1;ratioP1;P1;durP2;ratioP2;P2;SDS_P1;SDS_P2;PMS_P1;PMS_P2;Temp;Humidity;BMP_temperature;BMP_pressure;BME280_temperature;BME280_humidity;BME280_pressure;Samples;Min_cycle;Max_cycle;Signal;HPM_P1;HPM_P2
2021/08/05 00:00:08;;;;;;;3.47;2.28;;;;;;;;;;4896671;29;20056;-52
2021/08/05 00:02:35;;;;;;;4.82;2.72;;;;;;;;;;4894120;29;20045;-52
2021/08/05 00:05:02;;;;;;;4.30;2.90;;;;;;;;;;4879060;29;20089;-52
2021/08/05 00:07:28;;;;;;;6.38;3.15;;;;;;;;;;4884026;29;20044;-49
2021/08/05 00:09:55;;;;;;;5.50;2.80;;;;;;;;;;4896909;29;20048;-51
2021/08/05 00:12:22;;;;;;;4.43;2.65;;;;;;;;;;4890500;29;20047;-53
2021/08/05 00:14:49;;;;;;;5.03;2.70;;;;;;;;;;4897178;29;20061;-52
2021/08/05 00:17:16;;;;;;;4.60;2.80;;;;;;;;;;4890499;29;20079;-50
2021/08/05 00:19:43;;;;;;;6.40;3.45;;;;;;;;;;4897031;29;20144;-50
2021/08/05 00:22:09;;;;;;;5.88;3.45;;;;;;;;;;4890122;29;20139;-51
2021/08/05 00:24:36;;;;;;;5.68;3.75;;;;;;;;;;4896745;29;20044;-52
2021/08/05 00:27:08;;;;;;;5.88;3.55;;;;;;;;;;4880103;29;20076;-54
2021/08/05 00:29:35;;;;;;;5.40;3.42;;;;;;;;;;4879129;29;20045;-51
2021/08/05 00:32:02;;;;;;;5.40;3.50;;;;;;;;;;4889026;29;20120;-45
2021/08/05 00:34:29;;;;;;;5.07;3.28;;;;;;;;;;4894499;29;20045;-50
2021/08/05 00:36:55;;;;;;;4.80;3.25;;;;;;;;;;4890289;29;20398;-46
2021/08/05 00:39:23;;;;;;;7.00;4.20;;;;;;;;;;4878430;29;20048;-50
2021/08/05 00:41:50;;;;;;;6.20;3.92;;;;;;;;;;4888763;29;20514;-46
2021/08/05 00:44:17;;;;;;;5.03;3.55;;;;;;;;;;4884708;29;20053;-50
2021/08/05 00:46:44;;;;;;;5.07;3.05;;;;;;;;;;4872848;29;20096;-46
2021/08/05 00:49:11;;;;;;;6.05;3.78;;;;;;;;;;4896003;29;20123;-46
2021/08/05 00:51:37;;;;;;;5.20;3.42;;;;;;;;;;4879792;29;20053;-50
2021/08/05 00:54:05;;;;;;;5.63;3.78;;;;;;;;;;4876796;29;20053;-46
2021/08/05 00:56:33;;;;;;;7.78;4.18;;;;;;;;;;4886215;29;20052;-50
2021/08/05 00:59:00;;;;;;;4.70;3.65;;;;;;;;;;4887580;29;20418;-47
2021/08/05 01:01:41;;;;;;;7.53;4.30;;;;;;;;;;4869123;29;20073;-47
2021/08/05 01:04:08;;;;;;;7.32;4.53;;;;;;;;;;4883968;29;20068;-49
2021/08/05 01:06:36;;;;;;;6.75;3.47;;;;;;;;;;4887771;29;20044;-49
2021/08/05 01:09:06;;;;;;;9.05;6.28;;;;;;;;;;4892204;29;20040;-50
2021/08/05 01:11:36;;;;;;;6.80;4.82;;;;;;;;;;4883309;29;20427;-49
2021/08/05 01:14:04;;;;;;;8.07;5.50;;;;;;;;;;4885493;29;20471;-47
2021/08/05 01:16:34;;;;;;;8.10;5.07;;;;;;;;;;4878753;29;20053;-47
2021/08/05 01:19:21;;;;;;;7.55;4.20;;;;;;;;;;4882843;29;20123;-48
2021/08/05 01:22:03;;;;;;;5.22;2.95;;;;;;;;;;4858138;29;20056;-49
2021/08/05 01:24:34;;;;;;;4.05;2.78;;;;;;;;;;4893462;29;20040;-49
2021/08/05 01:27:02;;;;;;;4.78;3.08;;;;;;;;;;4881479;29;20136;-53
2021/08/05 01:29:31;;;;;;;4.90;3.35;;;;;;;;;;4880494;29;20067;-48
2021/08/05 01:31:58;;;;;;;5.93;3.42;;;;;;;;;;4896045;29;20044;-48
2021/08/05 01:34:25;;;;;;;6.30;4.10;;;;;;;;;;4888104;29;20451;-50
2021/08/05 01:36:53;;;;;;;6.28;4.03;;;;;;;;;;4894909;29;20041;-51
2021/08/05 01:39:20;;;;;;;5.90;4.30;;;;;;;;;;4895018;29;20056;-52
2021/08/05 01:41:48;;;;;;;4.80;3.60;;;;;;;;;;4910618;29;20041;-48
2021/08/05 01:44:17;;;;;;;3.20;2.00;;;;;;;;;;4883532;29;20053;-51
2021/08/05 01:46:44;;;;;;;3.40;2.00;;;;;;;;;;4876030;29;20045;-52
2021/08/05 01:49:12;;;;;;;3.30;1.90;;;;;;;;;;4877266;29;20067;-53
2021/08/05 01:51:39;;;;;;;2.90;2.10;;;;;;;;;;4888185;29;20045;-51
2021/08/05 01:54:06;;;;;;;2.92;1.90;;;;;;;;;;4881053;29;20051;-50
2021/08/05 01:56:33;;;;;;;2.13;1.60;;;;;;;;;;4882916;29;20108;-50
2021/08/05 01:59:00;;;;;;;2.38;1.50;;;;;;;;;;4876605;29;20053;-51
2021/08/05 02:01:28;;;;;;;2.53;1.23;;;;;;;;;;4877117;29;20128;-49
2021/08/05 02:04:05;;;;;;;1.30;1.00;;;;;;;;;;4881523;29;20052;-50
2021/08/05 02:06:33;;;;;;;0.88;0.80;;;;;;;;;;4892943;29;20056;-50
2021/08/05 02:09:15;;;;;;;;;;;;;;;;;;4886066;29;20048;-51
2021/08/05 02:11:46;;;;;;;1.40;0.95;;;;;;;;;;4890733;29;19928;-52
2021/08/05 02:14:14;;;;;;;1.23;1.00;;;;;;;;;;4877046;29;20400;-53
2021/08/05 02:16:43;;;;;;;1.70;1.10;;;;;;;;;;4884956;29;20096;-52
2021/08/05 02:19:12;;;;;;;1.67;1.20;;;;;;;;;;4896225;29;20104;-52
2021/08/05 02:21:40;;;;;;;2.67;1.42;;;;;;;;;;4891253;29;20103;-52
2021/08/05 02:24:07;;;;;;;2.10;1.40;;;;;;;;;;4882672;29;20049;-52
2021/08/05 02:26:34;;;;;;;1.90;1.38;;;;;;;;;;4886848;29;20077;-51
2021/08/05 02:29:01;;;;;;;2.72;1.58;;;;;;;;;;4896159;29;20044;-51
2021/08/05 02:31:28;;;;;;;1.90;1.35;;;;;;;;;;4897681;29;20316;-52
2021/08/05 02:33:57;;;;;;;2.22;1.45;;;;;;;;;;4891818;29;20395;-50
2021/08/05 02:36:24;;;;;;;2.28;1.50;;;;;;;;;;4884200;29;20431;-50
2021/08/05 02:38:51;;;;;;;2.63;1.40;;;;;;;;;;4880260;29;20049;-50
2021/08/05 02:41:18;;;;;;;1.73;1.20;;;;;;;;;;4880730;29;20041;-51
2021/08/05 02:43:45;;;;;;;2.22;1.50;;;;;;;;;;4883724;29;20132;-51
2021/08/05 02:46:14;;;;;;;2.88;1.50;;;;;;;;;;4894776;29;20036;-52
2021/08/05 02:48:41;;;;;;;2.90;1.65;;;;;;;;;;4899363;29;20499;-53
2021/08/05 02:51:08;;;;;;;2.60;1.40;;;;;;;;;;4893582;29;20139;-51
2021/08/05 02:53:35;;;;;;;3.75;1.42;;;;;;;;;;4898429;29;20052;-50
2021/08/05 02:56:02;;;;;;;3.70;1.60;;;;;;;;;;4893516;29;20106;-54
2021/08/05 02:58:30;;;;;;;2.03;1.50;;;;;;;;;;4888202;23;20132;-50
2021/08/05 03:00:56;;;;;;;1.95;1.40;;;;;;;;;;4871063;29;20087;-45
2021/08/05 03:03:24;;;;;;;2.53;1.35;;;;;;;;;;4870704;29;20045;-50
2021/08/05 03:05:51;;;;;;;2.90;1.63;;;;;;;;;;4877650;29;20113;-45
2021/08/05 03:08:18;;;;;;;3.75;1.70;;;;;;;;;;4873318;29;20114;-46
2021/08/05 03:10:45;;;;;;;3.13;1.52;;;;;;;;;;4878324;29;20057;-48
2021/08/05 03:13:11;;;;;;;4.20;1.88;;;;;;;;;;4874829;29;20558;-45
2021/08/05 03:15:38;;;;;;;2.42;1.70;;;;;;;;;;4875236;29;20053;-46
2021/08/05 03:18:05;;;;;;;3.88;1.70;;;;;;;;;;4872263;29;20049;-46
2021/08/05 03:20:32;;;;;;;3.42;1.65;;;;;;;;;;4877965;29;20176;-46
2021/08/05 03:22:59;;;;;;;3.53;1.92;;;;;;;;;;4865196;29;20080;-47
2021/08/05 03:25:27;;;;;;;3.70;2.05;;;;;;;;;;4871125;29;20089;-46
2021/08/05 03:28:02;;;;;;;3.17;2.05;;;;;;;;;;4878006;29;20447;-47
2021/08/05 03:30:29;;;;;;;3.38;2.05;;;;;;;;;;4878673;29;20392;-49
2021/08/05 03:33:00;;;;;;;3.30;2.08;;;;;;;;;;4879333;29;20079;-47
2021/08/05 03:35:28;;;;;;;4.80;2.45;;;;;;;;;;4865140;29;20145;-49
2021/08/05 03:37:55;;;;;;;4.10;2.78;;;;;;;;;;4877619;29;20069;-49
2021/08/05 03:40:22;;;;;;;5.32;2.40;;;;;;;;;;4877360;29;20064;-46
2021/08/05 03:42:49;;;;;;;3.90;2.65;;;;;;;;;;4859688;29;20049;-47
2021/08/05 03:45:15;;;;;;;4.38;3.03;;;;;;;;;;4875983;29;20045;-47
2021/08/05 03:47:42;;;;;;;5.70;3.05;;;;;;;;;;4873873;29;20052;-46
2021/08/05 03:50:09;;;;;;;4.88;3.28;;;;;;;;;;4861155;29;20046;-46
2021/08/05 03:52:40;;;;;;;4.50;3.47;;;;;;;;;;4878756;29;20176;-48
2021/08/05 03:55:12;;;;;;;5.05;3.50;;;;;;;;;;4875119;29;20656;-48
2021/08/05 03:57:40;;;;;;;5.45;3.83;;;;;;;;;;4860735;29;20052;-47
2021/08/05 04:00:08;;;;;;;5.47;3.97;;;;;;;;;;4873103;29;20048;-49
2021/08/05 04:02:38;;;;;;;7.28;4.20;;;;;;;;;;4878903;29;20152;-45
2021/08/05 04:05:06;;;;;;;6.90;4.72;;;;;;;;;;4867484;29;20078;-45
2021/08/05 04:07:32;;;;;;;7.45;4.85;;;;;;;;;;4876832;29;20115;-48
2021/08/05 04:09:59;;;;;;;6.90;4.50;;;;;;;;;;4875531;29;20037;-46
2021/08/05 04:12:26;;;;;;;7.65;4.97;;;;;;;;;;4877140;29;20400;-45
2021/08/05 04:14:53;;;;;;;7.80;5.18;;;;;;;;;;4876600;29;20049;-48
2021/08/05 04:17:20;;;;;;;7.60;4.82;;;;;;;;;;4870340;29;20072;-45
2021/08/05 04:19:46;;;;;;;9.32;5.22;;;;;;;;;;4878260;29;20044;-47
2021/08/05 04:22:15;;;;;;;9.75;5.32;;;;;;;;;;4877064;29;20460;-46
2021/08/05 04:24:42;;;;;;;29.65;5.55;;;;;;;;;;4876818;29;20045;-50
2021/08/05 04:27:09;;;;;;;9.38;5.43;;;;;;;;;;4869835;29;20041;-47
2021/08/05 04:29:35;;;;;;;6.43;5.07;;;;;;;;;;4863255;29;20045;-48
2021/08/05 04:32:02;;;;;;;6.80;5.30;;;;;;;;;;4877116;29;20052;-45
2021/08/05 04:34:29;;;;;;;7.88;5.18;;;;;;;;;;4869786;29;20148;-47
2021/08/05 04:36:56;;;;;;;6.95;5.55;;;;;;;;;;4865770;29;20037;-47
2021/08/05 04:39:24;;;;;;;8.02;5.45;;;;;;;;;;4877657;29;20491;-49
2021/08/05 04:41:51;;;;;;;6.88;4.90;;;;;;;;;;4876100;29;20041;-47
2021/08/05 04:44:18;;;;;;;6.20;5.10;;;;;;;;;;4871473;29;20108;-49
2021/08/05 04:46:44;;;;;;;8.43;5.18;;;;;;;;;;4874329;29;20041;-48
2021/08/05 04:49:11;;;;;;;8.25;4.80;;;;;;;;;;4877941;29;20071;-49
2021/08/05 04:51:38;;;;;;;7.90;5.30;;;;;;;;;;4876103;29;20088;-51
2021/08/05 04:54:05;;;;;;;6.63;4.85;;;;;;;;;;4870732;29;20459;-47
2021/08/05 04:56:32;;;;;;;7.00;5.45;;;;;;;;;;4871806;29;20057;-47
2021/08/05 04:58:59;;;;;;;6.07;4.40;;;;;;;;;;4874395;29;20108;-50
2021/08/05 05:01:25;;;;;;;10.13;5.55;;;;;;;;;;4869847;29;20136;-47
2021/08/05 05:03:52;;;;;;;6.95;4.45;;;;;;;;;;4867081;29;20049;-52
2021/08/05 05:06:19;;;;;;;9.00;4.15;;;;;;;;;;4875858;29;20041;-48
2021/08/05 05:08:46;;;;;;;5.50;4.32;;;;;;;;;;4875887;29;20403;-47
2021/08/05 05:11:13;;;;;;;6.80;4.20;;;;;;;;;;4877440;29;20121;-50
2021/08/05 05:13:39;;;;;;;7.70;4.78;;;;;;;;;;4875729;29;20051;-48
2021/08/05 05:16:06;;;;;;;5.70;4.00;;;;;;;;;;4870853;29;20045;-46
2021/08/05 05:18:33;;;;;;;6.80;4.28;;;;;;;;;;4873835;29;20045;-48
2021/08/05 05:21:00;;;;;;;5.50;4.22;;;;;;;;;;4876671;29;20526;-47
2021/08/05 05:23:27;;;;;;;6.07;4.40;;;;;;;;;;4875811;29;20051;-49
2021/08/05 05:25:53;;;;;;;5.50;4.50;;;;;;;;;;4858519;29;20144;-48
2021/08/05 05:28:20;;;;;;;7.70;4.80;;;;;;;;;;4859134;29;20104;-48
2021/08/05 05:30:47;;;;;;;7.65;3.95;;;;;;;;;;4876135;29;20124;-45
2021/08/05 05:33:14;;;;;;;7.00;4.32;;;;;;;;;;4869863;29;20047;-47
2021/08/05 05:35:41;;;;;;;5.85;4.13;;;;;;;;;;4875827;29;20041;-47
2021/08/05 05:38:08;;;;;;;7.28;3.60;;;;;;;;;;4875711;29;20450;-49
2021/08/05 05:40:35;;;;;;;5.07;3.33;;;;;;;;;;4871461;29;20129;-46
2021/08/05 05:43:04;;;;;;;6.63;3.25;;;;;;;;;;4871254;29;20071;-47
2021/08/05 05:45:31;;;;;;;4.75;3.58;;;;;;;;;;4874318;29;20132;-47
2021/08/05 05:48:00;;;;;;;4.40;3.08;;;;;;;;;;4859523;29;20045;-45
2021/08/05 05:50:28;;;;;;;5.40;3.53;;;;;;;;;;4859532;29;20158;-46
2021/08/05 05:52:57;;;;;;;5.38;3.35;;;;;;;;;;4863139;29;20392;-47
2021/08/05 05:55:24;;;;;;;6.38;3.45;;;;;;;;;;4871181;29;20136;-45
2021/08/05 05:57:50;;;;;;;5.97;2.80;;;;;;;;;;4869082;29;20048;-45
2021/08/05 06:00:17;;;;;;;5.07;2.83;;;;;;;;;;4875580;29;20178;-46
2021/08/05 06:02:44;;;;;;;5.70;2.90;;;;;;;;;;4865363;29;20050;-49
2021/08/05 06:05:11;;;;;;;6.22;3.22;;;;;;;;;;4867954;29;20049;-50
2021/08/05 06:07:42;;;;;;;4.97;3.10;;;;;;;;;;4862638;29;20049;-45
2021/08/05 06:10:11;;;;;;;7.70;2.63;;;;;;;;;;4879577;29;20041;-44
2021/08/05 06:12:38;;;;;;;4.85;3.00;;;;;;;;;;4880321;29;20068;-45
2021/08/05 06:15:05;;;;;;;5.15;3.10;;;;;;;;;;4873684;29;20135;-44
2021/08/05 06:17:31;;;;;;;4.10;2.75;;;;;;;;;;4868115;29;20052;-49
2021/08/05 06:19:58;;;;;;;4.90;2.80;;;;;;;;;;4878326;29;20049;-47
2021/08/05 06:22:25;;;;;;;6.40;2.63;;;;;;;;;;4879656;29;20471;-46
2021/08/05 06:24:51;;;;;;;5.35;2.70;;;;;;;;;;4876607;29;20041;-48
2021/08/05 06:27:22;;;;;;;4.88;2.83;;;;;;;;;;4879343;29;20441;-46
2021/08/05 06:29:49;;;;;;;5.65;3.00;;;;;;;;;;4879233;29;20051;-45
2021/08/05 06:32:17;;;;;;;4.40;2.65;;;;;;;;;;4857105;29;20050;-47
2021/08/05 06:34:44;;;;;;;3.90;2.38;;;;;;;;;;4866191;29;20103;-49
2021/08/05 06:37:12;;;;;;;4.45;2.72;;;;;;;;;;4878966;29;20053;-50
2021/08/05 06:39:39;;;;;;;3.50;2.75;;;;;;;;;;4879515;29;20083;-46
2021/08/05 06:42:05;;;;;;;4.07;2.75;;;;;;;;;;4873574;29;20050;-44
2021/08/05 06:44:35;;;;;;;6.20;2.72;;;;;;;;;;4878449;29;20049;-48
2021/08/05 06:47:03;;;;;;;5.03;2.95;;;;;;;;;;4876803;29;20049;-45
2021/08/05 06:49:30;;;;;;;4.10;2.80;;;;;;;;;;4861431;29;20038;-47
2021/08/05 06:52:09;;;;;;;4.20;2.75;;;;;;;;;;4879784;29;20076;-48
2021/08/05 06:54:36;;;;;;;6.38;3.00;;;;;;;;;;4867527;29;20088;-46
2021/08/05 06:57:03;;;;;;;5.40;3.10;;;;;;;;;;4877704;29;20072;-50
2021/08/05 06:59:30;;;;;;;6.18;3.38;;;;;;;;;;4879203;29;20463;-47
2021/08/05 07:01:57;;;;;;;6.18;3.33;;;;;;;;;;4872381;29;20052;-47
2021/08/05 07:04:24;;;;;;;3.90;2.58;;;;;;;;;;4860368;29;20049;-47
2021/08/05 07:06:50;;;;;;;4.25;2.70;;;;;;;;;;4869627;29;20041;-45
2021/08/05 07:09:17;;;;;;;6.22;2.67;;;;;;;;;;4875700;29;20052;-51
2021/08/05 07:11:44;;;;;;;5.22;3.17;;;;;;;;;;4875353;29;20434;-47
2021/08/05 07:14:10;;;;;;;5.07;3.40;;;;;;;;;;4872891;29;20041;-47
2021/08/05 07:16:37;;;;;;;4.80;3.08;;;;;;;;;;4872467;29;20060;-51
2021/08/05 07:19:04;;;;;;;3.90;2.58;;;;;;;;;;4878103;29;20045;-50
2021/08/05 07:21:31;;;;;;;4.80;3.03;;;;;;;;;;4878156;29;20041;-49
2021/08/05 07:23:58;;;;;;;4.82;2.90;;;;;;;;;;4862344;29;20080;-50
2021/08/05 07:26:25;;;;;;;6.20;3.22;;;;;;;;;;4875633;29;20546;-47
2021/08/05 07:28:52;;;;;;;4.95;3.03;;;;;;;;;;4874641;29;20533;-49
2021/08/05 07:31:19;;;;;;;4.03;2.90;;;;;;;;;;4878599;29;20049;-49
2021/08/05 07:33:48;;;;;;;5.65;2.90;;;;;;;;;;4868593;29;20492;-47
2021/08/05 07:36:16;;;;;;;5.43;3.33;;;;;;;;;;4866244;29;20060;-47
2021/08/05 07:38:43;;;;;;;4.70;2.92;;;;;;;;;;4876442;29;20117;-47
2021/08/05 07:41:10;;;;;;;5.90;3.40;;;;;;;;;;4873225;29;20127;-47
2021/08/05 07:43:36;;;;;;;5.03;3.30;;;;;;;;;;4873588;29;20128;-50
2021/08/05 07:46:03;;;;;;;4.57;2.60;;;;;;;;;;4873659;29;20444;-49
2021/08/05 07:48:30;;;;;;;7.75;3.55;;;;;;;;;;4871896;29;20431;-46
2021/08/05 07:50:57;;;;;;;5.80;3.63;;;;;;;;;;4874494;29;20128;-51
2021/08/05 07:53:24;;;;;;;5.13;3.20;;;;;;;;;;4874195;29;20512;-48
2021/08/05 07:55:50;;;;;;;5.72;3.22;;;;;;;;;;4870421;29;21707;-46
2021/08/05 07:58:17;;;;;;;6.40;3.50;;;;;;;;;;4877738;29;20136;-47
2021/08/05 08:00:44;;;;;;;5.93;3.95;;;;;;;;;;4876541;29;20052;-48
2021/08/05 08:03:11;;;;;;;5.63;3.40;;;;;;;;;;4879013;29;20044;-48
2021/08/05 08:05:41;;;;;;;5.55;3.38;;;;;;;;;;4866069;29;20047;-48
2021/08/05 08:08:08;;;;;;;6.22;3.75;;;;;;;;;;4871787;29;20045;-50
2021/08/05 08:10:36;;;;;;;6.43;4.00;;;;;;;;;;4877816;29;20140;-48
2021/08/05 08:13:20;;;;;;;7.00;4.32;;;;;;;;;;4866940;29;20067;-51
2021/08/05 08:15:47;;;;;;;6.68;4.30;;;;;;;;;;4875059;29;20049;-46
2021/08/05 08:18:14;;;;;;;8.88;4.13;;;;;;;;;;4866199;29;20077;-46
2021/08/05 08:20:41;;;;;;;5.68;4.30;;;;;;;;;;4877096;29;20045;-46
2021/08/05 08:23:08;;;;;;;7.60;4.20;;;;;;;;;;4876067;29;20076;-48
2021/08/05 08:25:35;;;;;;;6.93;4.43;;;;;;;;;;4858924;29;20077;-48
2021/08/05 08:28:02;;;;;;;6.65;4.20;;;;;;;;;;4859270;29;20053;-46
2021/08/05 08:30:32;;;;;;;7.82;4.32;;;;;;;;;;4877499;29;20052;-47
2021/08/05 08:32:59;;;;;;;7.18;4.60;;;;;;;;;;4866912;29;20215;-49
2021/08/05 08:35:26;;;;;;;7.38;5.10;;;;;;;;;;4875142;29;20068;-49
2021/08/05 08:37:52;;;;;;;11.10;4.93;;;;;;;;;;4874958;29;20148;-49
2021/08/05 08:40:19;;;;;;;8.40;4.68;;;;;;;;;;4870363;29;20057;-48
2021/08/05 08:42:46;;;;;;;7.18;4.68;;;;;;;;;;4862843;29;20471;-48
2021/08/05 08:45:14;;;;;;;9.60;5.30;;;;;;;;;;4873556;29;20049;-48
2021/08/05 08:47:41;;;;;;;6.63;5.35;;;;;;;;;;4860739;29;20052;-47
2021/08/05 08:50:08;;;;;;;9.38;5.53;;;;;;;;;;4871237;29;20069;-52
2021/08/05 08:52:38;;;;;;;6.85;5.40;;;;;;;;;;4877344;29;20136;-46
2021/08/05 08:55:05;;;;;;;6.38;5.13;;;;;;;;;;4876823;29;20059;-47
2021/08/05 08:57:34;;;;;;;6.85;5.07;;;;;;;;;;4862152;29;20128;-50
2021/08/05 09:00:03;;;;;;;7.50;5.75;;;;;;;;;;4868800;29;20051;-50
2021/08/05 09:02:30;;;;;;;9.88;6.45;;;;;;;;;;4877253;29;20045;-46
2021/08/05 09:04:57;;;;;;;9.07;5.88;;;;;;;;;;4874239;29;20049;-48
2021/08/05 09:07:24;;;;;;;8.05;5.75;;;;;;;;;;4873622;29;20059;-49
2021/08/05 09:09:51;;;;;;;6.95;5.45;;;;;;;;;;4869808;29;20100;-51
2021/08/05 09:12:18;;;;;;;6.35;5.05;;;;;;;;;;4869949;29;20076;-48
2021/08/05 09:14:47;;;;;;;6.97;5.63;;;;;;;;;;4871946;29;20113;-47
2021/08/05 09:17:15;;;;;;;7.47;5.53;;;;;;;;;;4869755;29;20195;-47
2021/08/05 09:19:42;;;;;;;6.25;5.07;;;;;;;;;;4870731;29;20419;-48
2021/08/05 09:22:09;;;;;;;6.25;5.07;;;;;;;;;;4868816;29;20045;-49
2021/08/05 09:24:35;;;;;;;7.28;4.93;;;;;;;;;;4875381;29;20541;-48
2021/08/05 09:27:03;;;;;;;9.25;5.60;;;;;;;;;;4872499;29;20483;-53
2021/08/05 09:29:30;;;;;;;6.90;5.40;;;;;;;;;;4877536;29;20041;-49
2021/08/05 09:31:59;;;;;;;9.63;5.30;;;;;;;;;;4871447;29;20045;-47
2021/08/05 09:34:32;;;;;;;8.40;4.97;;;;;;;;;;4861777;29;20113;-46
2021/08/05 09:37:03;;;;;;;8.57;4.57;;;;;;;;;;4872547;29;20457;-49
2021/08/05 09:39:31;;;;;;;11.15;5.13;;;;;;;;;;4871881;29;20045;-47
2021/08/05 09:41:59;;;;;;;7.60;4.60;;;;;;;;;;4871914;29;20124;-49
2021/08/05 09:44:27;;;;;;;6.55;4.40;;;;;;;;;;4865970;29;20405;-50
2021/08/05 09:47:03;;;;;;;6.45;4.45;;;;;;;;;;4866871;29;20051;-53
2021/08/05 09:49:31;;;;;;;5.47;3.92;;;;;;;;;;4873270;29;20128;-49
2021/08/05 09:51:58;;;;;;;5.85;4.18;;;;;;;;;;4867428;29;20508;-50
2021/08/05 09:54:35;;;;;;;6.88;5.25;;;;;;;;;;4864264;29;20389;-52
2021/08/05 09:57:02;;;;;;;7.25;4.78;;;;;;;;;;4866667;29;20071;-51
2021/08/05 09:59:29;;;;;;;5.65;3.90;;;;;;;;;;4874473;29;20056;-50
2021/08/05 10:02:01;;;;;;;6.55;3.97;;;;;;;;;;4874892;29;20051;-46
2021/08/05 10:04:29;;;;;;;5.27;4.27;;;;;;;;;;4868862;29;20048;-47
2021/08/05 10:06:57;;;;;;;5.03;4.03;;;;;;;;;;4874545;29;20117;-47
2021/08/05 10:09:24;;;;;;;7.22;4.03;;;;;;;;;;4876484;29;20041;-46
2021/08/05 10:11:51;;;;;;;6.95;4.45;;;;;;;;;;4868413;29;21346;-52
2021/08/05 10:14:19;;;;;;;5.68;3.83;;;;;;;;;;4859638;29;20160;-53
2021/08/05 10:16:50;;;;;;;5.18;3.50;;;;;;;;;;4873842;29;20049;-50
2021/08/05 10:19:18;;;;;;;4.65;3.55;;;;;;;;;;4875663;29;20076;-52
2021/08/05 10:21:46;;;;;;;4.95;3.72;;;;;;;;;;4875621;29;20061;-52
2021/08/05 10:24:14;;;;;;;6.20;4.22;;;;;;;;;;4871480;29;20163;-51
2021/08/05 10:26:42;;;;;;;8.27;4.40;;;;;;;;;;4873089;29;20144;-48
2021/08/05 10:29:10;;;;;;;6.60;3.55;;;;;;;;;;4871937;29;20112;-49
2021/08/05 10:31:39;;;;;;;7.15;4.07;;;;;;;;;;4866836;29;20044;-49
2021/08/05 10:34:06;;;;;;;3.88;2.95;;;;;;;;;;4874088;29;20053;-53
2021/08/05 10:36:33;;;;;;;7.80;3.85;;;;;;;;;;4869011;29;20056;-45
2021/08/05 10:39:00;;;;;;;5.03;3.25;;;;;;;;;;4874289;29;20069;-47
2021/08/05 10:41:28;;;;;;;5.25;3.20;;;;;;;;;;4871839;29;20063;-46
2021/08/05 10:43:55;;;;;;;4.13;3.13;;;;;;;;;;4871984;29;20041;-47
2021/08/05 10:46:22;;;;;;;8.73;3.60;;;;;;;;;;4866427;29;20567;-47
2021/08/05 10:48:49;;;;;;;5.00;3.53;;;;;;;;;;4870237;29;20049;-48
2021/08/05 10:51:16;;;;;;;5.80;3.25;;;;;;;;;;4869848;29;20093;-44
2021/08/05 10:53:44;;;;;;;5.35;3.72;;;;;;;;;;4869346;29;20084;-45
2021/08/05 10:56:24;;;;;;;5.60;3.42;;;;;;;;;;4869349;29;20097;-47
2021/08/05 10:59:00;;;;;;;5.47;3.70;;;;;;;;;;4864693;29;20464;-45
2021/08/05 11:01:58;;;;;;;5.25;3.85;;;;;;;;;;4880106;29;20116;-47
2021/08/05 11:04:34;;;;;;;6.28;3.50;;;;;;;;;;4845768;29;20121;-44
2021/08/05 11:07:19;;;;;;;5.82;3.40;;;;;;;;;;4861683;29;20050;-48
2021/08/05 11:09:46;;;;;;;5.57;3.70;;;;;;;;;;4864445;29;20073;-48
2021/08/05 11:12:32;;;;;;;5.25;3.67;;;;;;;;;;4870604;29;20432;-44
2021/08/05 11:14:58;;;;;;;5.18;2.70;;;;;;;;;;4866558;29;20105;-45
2021/08/05 11:17:25;;;;;;;5.13;3.38;;;;;;;;;;4876037;29;20045;-44
2021/08/05 11:20:13;;;;;;;4.80;3.22;;;;;;;;;;4878832;29;20045;-43
2021/08/05 11:22:40;;;;;;;4.63;3.10;;;;;;;;;;4878956;29;20363;-45
2021/08/05 11:25:08;;;;;;;4.85;3.10;;;;;;;;;;4871376;29;20049;-46
2021/08/05 11:27:36;;;;;;;5.63;3.00;;;;;;;;;;4867012;29;20167;-46
2021/08/05 11:30:23;;;;;;;5.55;3.30;;;;;;;;;;4862608;29;20467;-44
2021/08/05 11:32:50;;;;;;;5.13;2.92;;;;;;;;;;4869079;29;20097;-46
2021/08/05 11:35:20;;;;;;;6.15;3.00;;;;;;;;;;4862046;29;20216;-45
2021/08/05 11:38:05;;;;;;;4.75;3.20;;;;;;;;;;4869802;29;20060;-45
2021/08/05 11:40:42;;;;;;;5.90;3.05;;;;;;;;;;4879354;29;20085;-44
2021/08/05 11:43:18;;;;;;;4.82;2.72;;;;;;;;;;4874642;29;20087;-45
2021/08/05 11:46:09;;;;;;;5.47;2.92;;;;;;;;;;4868491;29;20041;-45
2021/08/05 11:48:36;;;;;;;4.40;2.45;;;;;;;;;;4867080;29;20044;-45
2021/08/05 11:51:04;;;;;;;7.20;2.50;;;;;;;;;;4875905;29;20057;-48
2021/08/05 11:53:31;;;;;;;5.60;2.80;;;;;;;;;;4876301;29;20219;-49
2021/08/05 11:56:08;;;;;;;5.22;2.70;;;;;;;;;;4877989;29;20068;-48
2021/08/05 11:58:40;;;;;;;6.95;3.13;;;;;;;;;;4877089;29;20461;-46
2021/08/05 12:01:13;;;;;;;7.22;2.88;;;;;;;;;;4878557;29;20132;-47
2021/08/05 12:03:40;;;;;;;4.38;2.55;;;;;;;;;;4866225;29;20045;-47
2021/08/05 12:06:07;;;;;;;3.88;2.50;;;;;;;;;;4859961;29;20416;-48
2021/08/05 12:08:34;;;;;;;3.83;2.47;;;;;;;;;;4860328;29;20105;-51
2021/08/05 12:11:01;;;;;;;4.30;2.05;;;;;;;;;;4860425;29;20037;-50
2021/08/05 12:13:27;;;;;;;3.40;2.20;;;;;;;;;;4860151;29;20128;-47
2021/08/05 12:15:56;;;;;;;2.75;1.98;;;;;;;;;;4858358;29;20476;-51
2021/08/05 12:18:26;;;;;;;2.88;1.95;;;;;;;;;;4860038;29;20060;-46
2021/08/05 12:20:52;;;;;;;4.93;2.33;;;;;;;;;;4860286;29;20121;-49
2021/08/05 12:23:29;;;;;;;4.22;2.22;;;;;;;;;;4860024;29;20132;-48
2021/08/05 12:26:36;;;;;;;3.78;2.10;;;;;;;;;;4859497;29;20116;-48
2021/08/05 12:28:53;;;;;;;4.80;1.90;;;;;;;;;;4858350;29;20049;-46
2021/08/05 12:31:23;;;;;;;2.70;1.80;;;;;;;;;;4859858;29;20480;-46
2021/08/05 12:33:51;;;;;;;3.17;2.20;;;;;;;;;;4859678;29;20135;-46
2021/08/05 12:36:18;;;;;;;4.55;2.05;;;;;;;;;;4861539;29;20097;-45
2021/08/05 12:38:55;;;;;;;5.20;2.03;;;;;;;;;;4878169;29;20148;-48
2021/08/05 12:41:22;;;;;;;2.58;1.90;;;;;;;;;;4878866;29;20049;-50
2021/08/05 12:43:49;;;;;;;4.07;1.60;;;;;;;;;;4878174;29;20048;-47
2021/08/05 12:46:16;;;;;;;3.05;1.88;;;;;;;;;;4865097;29;20047;-47
2021/08/05 12:48:43;;;;;;;3.08;1.98;;;;;;;;;;4859642;29;20488;-44
2021/08/05 12:51:15;;;;;;;2.95;1.80;;;;;;;;;;4859519;29;20045;-46
2021/08/05 12:53:42;;;;;;;3.83;2.00;;;;;;;;;;4859096;29;20076;-48
2021/08/05 12:56:09;;;;;;;3.20;1.70;;;;;;;;;;4858659;29;20179;-46
2021/08/05 12:58:36;;;;;;;2.15;1.67;;;;;;;;;;4859464;29;20054;-47
2021/08/05 13:01:16;;;;;;;2.72;1.48;;;;;;;;;;4859402;29;20057;-46
2021/08/05 13:03:44;;;;;;;3.10;1.73;;;;;;;;;;4858757;29;20046;-47
2021/08/05 13:06:11;;;;;;;2.47;1.20;;;;;;;;;;4858610;29;20070;-47
2021/08/05 13:08:40;;;;;;;2.08;1.23;;;;;;;;;;4859101;29;20401;-46
2021/08/05 13:11:12;;;;;;;1.75;1.20;;;;;;;;;;4859216;29;20049;-47
2021/08/05 13:13:39;;;;;;;;;;;;;;;;;;4859468;29;20137;-46
2021/08/05 13:16:19;;;;;;;2.00;1.20;;;;;;;;;;4858101;29;20027;-46
2021/08/05 13:18:59;;;;;;;1.83;1.42;;;;;;;;;;4859023;29;20109;-44
2021/08/05 13:21:26;;;;;;;2.33;1.65;;;;;;;;;;4859149;29;20087;-45
2021/08/05 13:23:52;;;;;;;1.95;1.20;;;;;;;;;;4857200;29;20156;-45
2021/08/05 13:26:32;;;;;;;3.10;1.60;;;;;;;;;;4858598;29;20140;-47
2021/08/05 13:28:59;;;;;;;2.92;1.50;;;;;;;;;;4859040;29;20045;-50
2021/08/05 13:31:25;;;;;;;1.45;1.17;;;;;;;;;;4858693;29;20045;-51
2021/08/05 13:34:09;;;;;;;3.40;1.40;;;;;;;;;;4876780;29;20063;-49
2021/08/05 13:36:36;;;;;;;;;;;;;;;;;;4877766;29;20069;-47
2021/08/05 13:39:03;;;;;;;1.75;1.20;;;;;;;;;;4877433;29;19924;-47
2021/08/05 13:41:30;;;;;;;2.30;1.20;;;;;;;;;;4869516;29;20049;-50
2021/08/05 13:43:57;;;;;;;2.60;1.20;;;;;;;;;;4858495;29;20057;-47
2021/08/05 13:46:27;;;;;;;2.58;1.00;;;;;;;;;;4858001;29;20052;-47
2021/08/05 13:48:56;;;;;;;2.35;1.00;;;;;;;;;;4842336;29;20053;-47
2021/08/05 13:51:24;;;;;;;2.50;0.98;;;;;;;;;;4858531;29;20073;-46
2021/08/05 13:53:51;;;;;;;1.70;0.90;;;;;;;;;;4858511;29;20129;-46
2021/08/05 13:56:18;;;;;;;1.65;1.05;;;;;;;;;;4858191;29;20053;-46
2021/08/05 13:58:44;;;;;;;1.23;0.80;;;;;;;;;;4858592;29;20047;-46
2021/08/05 14:01:11;;;;;;;1.63;1.08;;;;;;;;;;4858293;29;20052;-47
2021/08/05 14:03:38;;;;;;;1.50;1.13;;;;;;;;;;4858342;29;20077;-48
2021/08/05 14:06:06;;;;;;;1.60;0.90;;;;;;;;;;4857785;29;20053;-47
2021/08/05 14:08:32;;;;;;;1.52;0.90;;;;;;;;;;4858758;29;20045;-47
2021/08/05 14:10:59;;;;;;;1.60;0.80;;;;;;;;;;4859031;29;20053;-50
2021/08/05 14:13:27;;;;;;;2.03;1.00;;;;;;;;;;4858576;29;20226;-49
2021/08/05 14:15:53;;;;;;;1.48;1.00;;;;;;;;;;4858033;29;20372;-49
2021/08/05 14:18:20;;;;;;;2.38;0.90;;;;;;;;;;4859015;29;20450;-47
2021/08/05 14:20:47;;;;;;;1.58;0.85;;;;;;;;;;4859425;29;20136;-45
2021/08/05 14:23:14;;;;;;;1.35;0.90;;;;;;;;;;4858930;29;20053;-46
2021/08/05 14:25:40;;;;;;;2.05;0.90;;;;;;;;;;4858347;29;20049;-45
2021/08/05 14:28:08;;;;;;;2.70;1.00;;;;;;;;;;4862300;29;20053;-49
2021/08/05 14:30:35;;;;;;;2.45;1.00;;;;;;;;;;4862479;29;20049;-47
2021/08/05 14:33:02;;;;;;;1.48;0.80;;;;;;;;;;4862547;29;20559;-48
2021/08/05 14:35:29;;;;;;;1.67;1.08;;;;;;;;;;4861496;29;20132;-46
2021/08/05 14:37:59;;;;;;;2.05;1.05;;;;;;;;;;4862173;29;20132;-46
2021/08/05 14:40:26;;;;;;;1.27;0.98;;;;;;;;;;4862556;29;20105;-48
2021/08/05 14:42:53;;;;;;;1.63;1.05;;;;;;;;;;4861529;29;20136;-45
2021/08/05 14:45:20;;;;;;;1.85;1.10;;;;;;;;;;4879165;29;20071;-49
2021/08/05 14:47:47;;;;;;;1.77;0.90;;;;;;;;;;4862182;29;20214;-47
2021/08/05 14:50:13;;;;;;;0.80;0.70;;;;;;;;;;4861505;29;20059;-50